Time;durP1;ratioP1;P1;durP2;ratioP2;P2;SDS_P1;SDS_P2;PMS_P1;PMS_P2;Temp;Humidity;BMP_temperature;BMP_pressure;BME280_temperature;BME280_humidity;BME280_pressure;Samples;Min_cycle;Max_cycle;Signal;HPM_P1;HPM_P2
2022/10/10 00:00:09;;;;;;;;;;;18.90;1.00;;;;;;5035927;28;19921;-53
2022/10/10 00:02:36;;;;;;;;;;;18.90;1.00;;;;;;5036048;28;19925;-56
2022/10/10 00:05:03;;;;;;;;;;;18.80;1.00;;;;;;5036363;28;19925;-55
2022/10/10 00:07:29;;;;;;;;;;;18.90;1.00;;;;;;5036576;28;19927;-50
2022/10/10 00:09:56;;;;;;;;;;;18.90;1.00;;;;;;5035950;28;20322;-52
2022/10/10 00:12:23;;;;;;;;;;;18.90;1.00;;;;;;5036144;28;19928;-49
2022/10/10 00:14:50;;;;;;;;;;;18.80;1.00;;;;;;5035764;28;20385;-54
2022/10/10 00:17:16;;;;;;;;;;;18.90;1.00;;;;;;5036027;28;19925;-49
2022/10/10 00:19:43;;;;;;;;;;;18.90;1.00;;;;;;5035686;28;20437;-52
2022/10/10 00:22:10;;;;;;;;;;;18.80;1.00;;;;;;5035465;28;19953;-54
2022/10/10 00:24:36;;;;;;;;;;;18.80;1.00;;;;;;5035921;28;19921;-52
2022/10/10 00:27:03;;;;;;;;;;;18.80;1.00;;;;;;5035651;28;19952;-51
2022/10/10 00:29:30;;;;;;;;;;;18.80;1.00;;;;;;5035747;28;20347;-50
2022/10/10 00:31:56;;;;;;;;;;;18.80;1.00;;;;;;5035339;28;19935;-52
2022/10/10 00:34:23;;;;;;;;;;;18.80;1.00;;;;;;5035700;28;19925;-54
2022/10/10 00:36:50;;;;;;;;;;;18.80;1.00;;;;;;5035817;28;19925;-54
2022/10/10 00:39:16;;;;;;;;;;;18.80;1.00;;;;;;5035315;28;19944;-55
2022/10/10 00:41:43;;;;;;;;;;;18.80;1.00;;;;;;5034798;28;20379;-53
2022/10/10 00:44:11;;;;;;;;;;;18.80;1.00;;;;;;5035529;28;19928;-53
2022/10/10 00:46:38;;;;;;;;;;;18.80;1.00;;;;;;5036046;28;20337;-56
2022/10/10 00:49:09;;;;;;;;;;;18.80;1.00;;;;;;5035178;28;19927;-54
2022/10/10 00:51:36;;;;;;;;;;;18.80;1.00;;;;;;5035503;28;19928;-56
2022/10/10 00:54:04;;;;;;;;;;;18.80;1.00;;;;;;5035281;28;20374;-54
2022/10/10 00:56:35;;;;;;;;;;;18.80;1.00;;;;;;5035242;28;19971;-57
2022/10/10 00:59:03;;;;;;;;;;;18.80;1.00;;;;;;5035524;28;19924;-55
2022/10/10 01:01:30;;;;;;;;;;;18.80;1.00;;;;;;5034818;28;19927;-53
2022/10/10 01:03:58;;;;;;;;;;;18.70;1.00;;;;;;5034546;28;19924;-54
2022/10/10 01:06:25;;;;;;;;;;;18.80;1.00;;;;;;5034808;28;19921;-49
2022/10/10 01:08:52;;;;;;;;;;;18.70;1.00;;;;;;5035100;28;19927;-56
2022/10/10 01:11:24;;;;;;;;;;;18.70;1.00;;;;;;5034532;28;19955;-56
2022/10/10 01:14:01;;;;;;;;;;;18.70;1.00;;;;;;5034759;28;19928;-53
2022/10/10 01:16:30;;;;;;;;;;;18.70;1.00;;;;;;5034583;28;20307;-52
2022/10/10 01:19:26;;;;;;;;;;;18.70;1.00;;;;;;5035243;28;20019;-54
2022/10/10 01:21:53;;;;;;;;;;;18.70;1.00;;;;;;5034662;28;19925;-56
2022/10/10 01:24:19;;;;;;;;;;;18.70;1.00;;;;;;5034978;28;19964;-50
2022/10/10 01:27:05;;;;;;;;;;;18.70;1.00;;;;;;5034858;28;19973;-52
2022/10/10 01:29:33;;;;;;;;;;;18.70;1.00;;;;;;5035013;28;19928;-53
2022/10/10 01:32:04;;;;;;;;;;;18.70;1.00;;;;;;5034064;28;20437;-53
2022/10/10 01:34:54;;;;;;;;;;;18.80;1.00;;;;;;5034707;28;19928;-56
2022/10/10 01:37:25;;;;;;;;;;;18.80;1.00;;;;;;5015062;28;19921;-53
2022/10/10 01:39:52;;;;;;;;;;;18.70;1.00;;;;;;5034471;28;19927;-55
2022/10/10 01:42:24;;;;;;;;;;;18.70;1.00;;;;;;5034097;28;19951;-52
2022/10/10 01:44:52;;;;;;;;;;;18.60;1.00;;;;;;5034420;28;19967;-54
2022/10/10 01:47:20;;;;;;;;;;;18.60;1.00;;;;;;5034574;28;20036;-54
2022/10/10 01:49:50;;;;;;;;;;;18.60;1.00;;;;;;5033983;28;19925;-47
2022/10/10 01:52:24;;;;;;;;;;;18.60;1.00;;;;;;5033663;28;19925;-56
2022/10/10 01:55:16;;;;;;;;;;;18.60;1.00;;;;;;5032860;28;20333;-50
2022/10/10 01:57:48;;;;;;;;;;;18.60;1.00;;;;;;5032885;28;19925;-55
2022/10/10 02:00:16;;;;;;;;;;;18.60;1.00;;;;;;5032637;28;19927;-54
2022/10/10 02:02:57;;;;;;;;;;;18.60;1.00;;;;;;5033664;28;19925;-54
2022/10/10 02:05:30;;;;;;;;;;;18.60;1.00;;;;;;5034117;28;20322;-51
2022/10/10 02:08:02;;;;;;;;;;;18.60;1.00;;;;;;5034388;28;20102;-55
2022/10/10 02:10:30;;;;;;;;;;;18.60;1.00;;;;;;5034191;28;19928;-57
2022/10/10 02:12:59;;;;;;;;;;;18.60;1.00;;;;;;5033652;28;19929;-54
2022/10/10 02:15:27;;;;;;;;;;;18.60;1.00;;;;;;5033732;28;19933;-52
2022/10/10 02:17:56;;;;;;;;;;;18.60;1.00;;;;;;5034139;28;19947;-55
2022/10/10 02:20:24;;;;;;;;;;;18.60;1.00;;;;;;5034021;28;20450;-57
2022/10/10 02:22:52;;;;;;;;;;;18.60;1.00;;;;;;5033069;28;20330;-58
2022/10/10 02:25:25;;;;;;;;;;;18.60;1.00;;;;;;5033766;28;19921;-55
2022/10/10 02:28:05;;;;;;;;;;;18.50;1.00;;;;;;5034319;28;19928;-55
2022/10/10 02:30:34;;;;;;;;;;;18.50;1.00;;;;;;5033934;28;19967;-55
2022/10/10 02:33:01;;;;;;;;;;;18.60;1.00;;;;;;5033340;28;20325;-53
2022/10/10 02:35:33;;;;;;;;;;;18.50;1.00;;;;;;5033524;28;19921;-55
2022/10/10 02:38:01;;;;;;;;;;;18.50;1.00;;;;;;5033318;28;20363;-52
2022/10/10 02:40:29;;;;;;;;;;;18.50;1.00;;;;;;5033589;28;19921;-53
2022/10/10 02:42:58;;;;;;;;;;;18.50;1.00;;;;;;5033371;28;20236;-54
2022/10/10 02:45:27;;;;;;;;;;;18.50;1.00;;;;;;5033398;28;19921;-51
2022/10/10 02:47:54;;;;;;;;;;;18.50;1.00;;;;;;5033397;28;19921;-53
2022/10/10 02:50:21;;;;;;;;;;;18.50;1.00;;;;;;5033423;28;19975;-55
2022/10/10 02:52:48;;;;;;;;;;;18.50;1.00;;;;;;5033028;28;19921;-58
2022/10/10 02:55:15;;;;;;;;;;;18.50;1.00;;;;;;5033131;28;19921;-55
2022/10/10 02:57:42;;;;;;;;;;;18.50;1.00;;;;;;5033553;28;19928;-54
2022/10/10 03:00:09;;;;;;;;;;;18.50;1.00;;;;;;5033233;28;19990;-53
2022/10/10 03:02:36;;;;;;;;;;;18.50;1.00;;;;;;5033197;28;19975;-55
2022/10/10 03:05:02;;;;;;;;;;;18.50;1.00;;;;;;5033371;28;19921;-55
2022/10/10 03:07:31;;;;;;;;;;;18.40;1.00;;;;;;5033278;28;19925;-55
2022/10/10 03:09:58;;;;;;;;;;;18.50;1.00;;;;;;5033403;28;19971;-54
2022/10/10 03:12:24;;;;;;;;;;;18.40;1.00;;;;;;5033164;28;20330;-54
2022/10/10 03:14:51;;;;;;;;;;;18.40;1.00;;;;;;5033604;28;19921;-54
2022/10/10 03:17:18;;;;;;;;;;;18.40;1.00;;;;;;5033263;28;19925;-52
2022/10/10 03:19:44;;;;;;;;;;;18.40;1.00;;;;;;5033787;28;19944;-53
2022/10/10 03:22:11;;;;;;;;;;;18.40;1.00;;;;;;5032775;28;19921;-57
2022/10/10 03:24:38;;;;;;;;;;;18.40;1.00;;;;;;5032916;28;19956;-55
2022/10/10 03:27:04;;;;;;;;;;;18.40;1.00;;;;;;5033529;28;20321;-53
2022/10/10 03:29:31;;;;;;;;;;;18.40;1.00;;;;;;5032918;28;20444;-50
2022/10/10 03:31:58;;;;;;;;;;;18.40;1.00;;;;;;5032798;28;19925;-54
2022/10/10 03:34:24;;;;;;;;;;;18.40;1.00;;;;;;5033612;28;19924;-55
2022/10/10 03:36:51;;;;;;;;;;;18.40;1.00;;;;;;5036425;28;20432;-54
2022/10/10 03:39:18;;;;;;;;;;;18.40;1.00;;;;;;5037126;28;20358;-54
2022/10/10 03:41:45;;;;;;;;;;;18.40;1.00;;;;;;5036324;28;19921;-54
2022/10/10 03:44:11;;;;;;;;;;;18.40;1.00;;;;;;5036946;28;19921;-54
2022/10/10 03:46:38;;;;;;;;;;;18.30;1.00;;;;;;5035197;28;20119;-51
2022/10/10 03:49:05;;;;;;;;;;;18.30;1.00;;;;;;5036445;28;19925;-56
2022/10/10 03:51:31;;;;;;;;;;;18.30;1.00;;;;;;5036335;28;19921;-55
2022/10/10 03:53:58;;;;;;;;;;;18.30;1.00;;;;;;5036177;28;19975;-56
2022/10/10 03:56:25;;;;;;;;;;;18.30;1.00;;;;;;5036223;28;19921;-58
2022/10/10 03:58:52;;;;;;;;;;;18.30;1.00;;;;;;5036769;28;19944;-50
2022/10/10 04:01:18;;;;;;;;;;;18.30;1.00;;;;;;5036028;28;19929;-54
2022/10/10 04:03:45;;;;;;;;;;;18.30;1.00;;;;;;5035860;28;19924;-56
2022/10/10 04:06:18;;;;;;;;;;;18.30;1.00;;;;;;5036212;28;20372;-56
2022/10/10 04:08:44;;;;;;;;;;;18.30;1.00;;;;;;5033702;28;19925;-56
2022/10/10 04:11:11;;;;;;;;;;;18.30;1.00;;;;;;5054427;28;19928;-55
2022/10/10 04:13:38;;;;;;;;;;;18.20;1.00;;;;;;5054036;28;19924;-52
2022/10/10 04:16:04;;;;;;;;;;;18.20;1.00;;;;;;5036079;28;20801;-50
2022/10/10 04:18:31;;;;;;;;;;;18.10;1.00;;;;;;5035973;28;19975;-51
2022/10/10 04:21:01;;;;;;;;;;;18.10;1.00;;;;;;5035782;28;20429;-53
2022/10/10 04:23:27;;;;;;;;;;;18.10;1.00;;;;;;5035076;28;19924;-52
2022/10/10 04:25:54;;;;;;;;;;;18.10;1.00;;;;;;5035382;28;19921;-53
2022/10/10 04:28:21;;;;;;;;;;;18.10;1.00;;;;;;5035920;28;20355;-54
2022/10/10 04:30:48;;;;;;;;;;;18.20;1.00;;;;;;5035962;28;20398;-51
2022/10/10 04:33:14;;;;;;;;;;;18.20;1.00;;;;;;5035343;28;19921;-57
2022/10/10 04:35:41;;;;;;;;;;;18.20;1.00;;;;;;5035805;28;19948;-53
2022/10/10 04:38:08;;;;;;;;;;;18.20;1.00;;;;;;5035617;28;19925;-52
2022/10/10 04:40:35;;;;;;;;;;;18.20;1.00;;;;;;5035523;28;20437;-54
2022/10/10 04:43:02;;;;;;;;;;;18.20;1.00;;;;;;5035018;28;20305;-55
2022/10/10 04:45:29;;;;;;;;;;;18.20;1.00;;;;;;5034909;28;19975;-56
2022/10/10 04:48:02;;;;;;;;;;;18.20;1.00;;;;;;5034233;28;19931;-55
2022/10/10 04:50:29;;;;;;;;;;;18.20;1.00;;;;;;5035103;28;19921;-51
2022/10/10 04:52:56;;;;;;;;;;;18.10;1.00;;;;;;5034894;28;20016;-55
2022/10/10 04:55:22;;;;;;;;;;;18.10;1.00;;;;;;5035549;28;19921;-54
2022/10/10 04:57:49;;;;;;;;;;;18.10;1.00;;;;;;5035087;28;20283;-55
2022/10/10 05:00:16;;;;;;;;;;;18.10;1.00;;;;;;5034950;28;20394;-52
2022/10/10 05:02:42;;;;;;;;;;;18.10;1.00;;;;;;5034908;28;19947;-57
2022/10/10 05:05:09;;;;;;;;;;;18.10;1.00;;;;;;5034749;28;19921;-53
2022/10/10 05:07:36;;;;;;;;;;;18.10;1.00;;;;;;5035042;28;19947;-53
2022/10/10 05:10:04;;;;;;;;;;;18.10;1.00;;;;;;5034736;28;19927;-56
2022/10/10 05:12:31;;;;;;;;;;;18.00;1.00;;;;;;5034588;28;20314;-55
2022/10/10 05:14:58;;;;;;;;;;;18.00;1.00;;;;;;5034527;28;19997;-51
2022/10/10 05:17:25;;;;;;;;;;;18.00;1.00;;;;;;5035031;28;20367;-50
2022/10/10 05:19:52;;;;;;;;;;;18.00;1.00;;;;;;5035041;28;19928;-55
2022/10/10 05:22:19;;;;;;;;;;;18.00;1.00;;;;;;5034291;28;19921;-56
2022/10/10 05:24:46;;;;;;;;;;;18.00;1.00;;;;;;5034557;28;19921;-52
2022/10/10 05:27:12;;;;;;;;;;;18.00;1.00;;;;;;5034234;28;19921;-55
2022/10/10 05:29:39;;;;;;;;;;;18.00;1.00;;;;;;5034515;28;20011;-52
2022/10/10 05:32:06;;;;;;;;;;;17.90;1.00;;;;;;5034100;28;19967;-53
2022/10/10 05:34:36;;;;;;;;;;;18.00;1.00;;;;;;5034779;28;19921;-55
2022/10/10 05:37:03;;;;;;;;;;;18.00;1.00;;;;;;5034097;28;19925;-57
2022/10/10 05:39:30;;;;;;;;;;;17.90;1.00;;;;;;5034153;28;19929;-51
2022/10/10 05:41:56;;;;;;;;;;;17.90;1.00;;;;;;5033958;28;20015;-52
2022/10/10 05:44:23;;;;;;;;;;;17.90;1.00;;;;;;5034075;28;19927;-55
2022/10/10 05:46:50;;;;;;;;;;;18.00;1.00;;;;;;5034549;28;19921;-54
2022/10/10 05:49:17;;;;;;;;;;;18.00;1.00;;;;;;5027549;28;19925;-56
2022/10/10 05:51:43;;;;;;;;;;;17.90;1.00;;;;;;5028803;28;19920;-54
2022/10/10 05:54:10;;;;;;;;;;;17.90;1.00;;;;;;5034092;28;19925;-55
2022/10/10 05:56:37;;;;;;;;;;;17.90;1.00;;;;;;5033915;28;19925;-55
2022/10/10 05:59:04;;;;;;;;;;;17.90;1.00;;;;;;5033712;28;20268;-54
2022/10/10 06:01:31;;;;;;;;;;;17.90;1.00;;;;;;5032604;28;19921;-56
2022/10/10 06:03:57;;;;;;;;;;;17.90;1.00;;;;;;5034087;28;20345;-54
2022/10/10 06:06:24;;;;;;;;;;;17.80;1.00;;;;;;5033891;28;20357;-54
2022/10/10 06:08:51;;;;;;;;;;;17.80;1.00;;;;;;5033721;28;19921;-53
2022/10/10 06:11:19;;;;;;;;;;;17.80;1.00;;;;;;5033668;28;19921;-53
2022/10/10 06:13:48;;;;;;;;;;;17.80;1.00;;;;;;5033432;28;19924;-55
2022/10/10 06:16:15;;;;;;;;;;;17.80;1.00;;;;;;5033510;28;19987;-57
2022/10/10 06:18:43;;;;;;;;;;;17.80;1.00;;;;;;5033812;28;20359;-57
2022/10/10 06:21:09;;;;;;;;;;;17.80;1.00;;;;;;5033454;28;20337;-57
2022/10/10 06:23:36;;;;;;;;;;;17.80;1.00;;;;;;5033493;28;19921;-55
2022/10/10 06:26:03;;;;;;;;;;;17.80;1.00;;;;;;5033534;28;20413;-55
2022/10/10 06:28:30;;;;;;;;;;;17.80;1.00;;;;;;5033519;28;20337;-53
2022/10/10 06:31:00;;;;;;;;;;;17.80;1.00;;;;;;5033533;28;20342;-58
2022/10/10 06:33:28;;;;;;;;;;;17.80;1.00;;;;;;5033221;28;19928;-52
2022/10/10 06:35:55;;;;;;;;;;;17.70;1.00;;;;;;5033497;28;20283;-48
2022/10/10 06:38:22;;;;;;;;;;;17.80;1.00;;;;;;5033411;28;19921;-54
2022/10/10 06:40:49;;;;;;;;;;;17.80;1.00;;;;;;5033380;28;19921;-56
2022/10/10 06:43:16;;;;;;;;;;;17.70;1.00;;;;;;5033125;28;19920;-52
2022/10/10 06:45:44;;;;;;;;;;;17.70;1.00;;;;;;5033291;28;19925;-52
2022/10/10 06:48:12;;;;;;;;;;;17.70;1.00;;;;;;5033472;28;19928;-56
2022/10/10 06:50:38;;;;;;;;;;;17.80;1.00;;;;;;5033402;28;19944;-57
2022/10/10 06:53:05;;;;;;;;;;;17.80;1.00;;;;;;5033131;28;19921;-55
2022/10/10 06:55:32;;;;;;;;;;;17.80;1.00;;;;;;5033395;28;19927;-58
2022/10/10 06:57:59;;;;;;;;;;;17.80;1.00;;;;;;5033165;28;20125;-57
2022/10/10 07:00:25;;;;;;;;;;;17.90;1.00;;;;;;5033117;28;19921;-57
2022/10/10 07:02:52;;;;;;;;;;;17.90;1.00;;;;;;5032837;28;19927;-56
2022/10/10 07:05:19;;;;;;;;;;;17.90;1.00;;;;;;5033313;28;19925;-58
2022/10/10 07:07:46;;;;;;;;;;;17.90;1.00;;;;;;5033217;28;19975;-55
2022/10/10 07:10:14;;;;;;;;;;;17.80;1.00;;;;;;5034528;28;19928;-53
2022/10/10 07:12:41;;;;;;;;;;;17.80;1.00;;;;;;5036551;28;19921;-54
2022/10/10 07:15:11;;;;;;;;;;;17.80;1.00;;;;;;5037457;28;19928;-52
2022/10/10 07:17:37;;;;;;;;;;;17.80;1.00;;;;;;5036974;28;19924;-52
2022/10/10 07:20:04;;;;;;;;;;;17.70;1.00;;;;;;5036924;28;19975;-49
2022/10/10 07:22:31;;;;;;;;;;;17.70;1.00;;;;;;5036390;28;19921;-48
2022/10/10 07:24:58;;;;;;;;;;;17.70;1.00;;;;;;5036947;28;20317;-47
2022/10/10 07:27:25;;;;;;;;;;;17.70;1.00;;;;;;5036849;28;19952;-54
2022/10/10 07:29:52;;;;;;;;;;;17.70;1.00;;;;;;5036504;28;19924;-53
2022/10/10 07:32:19;;;;;;;;;;;17.60;1.00;;;;;;5036299;28;20282;-56
2022/10/10 07:34:45;;;;;;;;;;;17.60;1.00;;;;;;5036485;28;19921;-49
2022/10/10 07:37:12;;;;;;;;;;;17.60;1.00;;;;;;5036188;28;20436;-51
2022/10/10 07:39:39;;;;;;;;;;;17.60;1.00;;;;;;5035432;28;19925;-45
2022/10/10 07:42:06;;;;;;;;;;;17.60;1.00;;;;;;5035974;28;19976;-50
2022/10/10 07:44:33;;;;;;;;;;;17.60;1.00;;;;;;5036674;28;20429;-53
2022/10/10 07:47:00;;;;;;;;;;;17.60;1.00;;;;;;5036133;28;19929;-54
2022/10/10 07:49:27;;;;;;;;;;;17.60;1.00;;;;;;5036155;28;19924;-55
2022/10/10 07:51:54;;;;;;;;;;;17.60;1.00;;;;;;5035857;28;19921;-50
2022/10/10 07:54:27;;;;;;;;;;;17.60;1.00;;;;;;5035914;28;20374;-55
2022/10/10 07:56:55;;;;;;;;;;;17.60;1.00;;;;;;5036049;28;19921;-54
2022/10/10 07:59:22;;;;;;;;;;;17.50;1.00;;;;;;5035821;28;19921;-54
2022/10/10 08:01:49;;;;;;;;;;;17.50;1.00;;;;;;5035672;28;20007;-53
2022/10/10 08:04:15;;;;;;;;;;;17.50;1.00;;;;;;5035836;28;19924;-52
2022/10/10 08:06:42;;;;;;;;;;;17.50;1.00;;;;;;5036036;28;19924;-56
2022/10/10 08:09:09;;;;;;;;;;;17.50;1.00;;;;;;5036058;28;19921;-55
2022/10/10 08:11:36;;;;;;;;;;;17.50;1.00;;;;;;5035703;28;20126;-52
2022/10/10 08:14:03;;;;;;;;;;;17.50;1.00;;;;;;5035987;28;20292;-51
2022/10/10 08:16:29;;;;;;;;;;;17.50;1.00;;;;;;5036112;28;19921;-50
2022/10/10 08:18:56;;;;;;;;;;;17.50;1.00;;;;;;5035782;28;20383;-58
2022/10/10 08:21:23;;;;;;;;;;;17.50;1.00;;;;;;5035828;28;19975;-54
2022/10/10 08:23:49;;;;;;;;;;;17.50;1.00;;;;;;5035474;28;19955;-55
2022/10/10 08:26:17;;;;;;;;;;;17.50;1.00;;;;;;5035600;28;19921;-55
2022/10/10 08:28:44;;;;;;;;;;;17.50;1.00;;;;;;5035509;28;19968;-53
2022/10/10 08:31:12;;;;;;;;;;;17.50;1.00;;;;;;5035532;28;20298;-53
2022/10/10 08:33:40;;;;;;;;;;;17.50;1.00;;;;;;5035002;28;20011;-55
2022/10/10 08:36:07;;;;;;;;;;;17.50;1.00;;;;;;5035386;28;19921;-57
2022/10/10 08:38:34;;;;;;;;;;;17.50;1.00;;;;;;5035267;28;19921;-56
2022/10/10 08:41:06;;;;;;;;;;;17.50;1.00;;;;;;5035018;28;19921;-54
2022/10/10 08:43:46;;;;;;;;;;;17.50;1.00;;;;;;5033719;28;20400;-51
2022/10/10 08:46:22;;;;;;;;;;;17.50;1.00;;;;;;5035280;28;19921;-54
2022/10/10 08:48:49;;;;;;;;;;;17.50;1.00;;;;;;5035063;28;19921;-53
2022/10/10 08:51:23;;;;;;;;;;;17.50;1.00;;;;;;5035049;28;19936;-52
2022/10/10 08:53:52;;;;;;;;;;;17.50;1.00;;;;;;5034828;28;19948;-54
2022/10/10 08:56:22;;;;;;;;;;;17.50;1.00;;;;;;5034987;28;19920;-53
2022/10/10 08:58:52;;;;;;;;;;;17.50;1.00;;;;;;5034980;28;19921;-55
2022/10/10 09:01:23;;;;;;;;;;;17.50;1.00;;;;;;5035249;28;19925;-51
2022/10/10 09:03:56;;;;;;;;;;;17.50;1.00;;;;;;5034697;28;19998;-58
2022/10/10 09:06:29;;;;;;;;;;;17.50;1.00;;;;;;5034921;28;19921;-53
2022/10/10 09:09:04;;;;;;;;;;;17.50;1.00;;;;;;5035347;28;19920;-49
2022/10/10 09:11:30;;;;;;;;;;;17.60;1.00;;;;;;5034813;28;19925;-60
2022/10/10 09:14:10;;;;;;;;;;;17.60;1.00;;;;;;5034766;28;20030;-55
2022/10/10 09:16:37;;;;;;;;;;;17.60;1.00;;;;;;5034671;28;19967;-54
2022/10/10 09:19:23;;;;;;;;;;;17.50;1.00;;;;;;5034889;28;19993;-56
2022/10/10 09:21:52;;;;;;;;;;;17.50;1.00;;;;;;5034192;28;19921;-57
2022/10/10 09:24:22;;;;;;;;;;;17.50;1.00;;;;;;5034857;28;20318;-52
2022/10/10 09:26:51;;;;;;;;;;;17.50;1.00;;;;;;5034491;28;19944;-56
2022/10/10 09:29:27;;;;;;;;;;;17.60;1.00;;;;;;5034296;28;19967;-53
2022/10/10 09:32:17;;;;;;;;;;;17.50;1.00;;;;;;5034244;28;20393;-55
2022/10/10 09:34:49;;;;;;;;;;;17.50;1.00;;;;;;5033160;28;19921;-53
2022/10/10 09:37:18;;;;;;;;;;;17.50;1.00;;;;;;5034438;28;19920;-50
2022/10/10 09:40:12;;;;;;;;;;;17.50;1.00;;;;;;5034304;28;19921;-50
2022/10/10 09:42:42;;;;;;;;;;;17.50;1.00;;;;;;5033759;28;19928;-52
2022/10/10 09:45:14;;;;;;;;;;;17.50;1.00;;;;;;5034015;28;19959;-53
2022/10/10 09:47:41;;;;;;;;;;;17.50;1.00;;;;;;5034121;28;20284;-52
2022/10/10 09:50:11;;;;;;;;;;;17.50;1.00;;;;;;5033951;28;19960;-56
2022/10/10 09:52:38;;;;;;;;;;;17.50;1.00;;;;;;5033693;28;19920;-54
2022/10/10 09:55:13;;;;;;;;;;;17.50;1.00;;;;;;5034491;28;20339;-52
2022/10/10 09:57:41;;;;;;;;;;;17.50;1.00;;;;;;5033941;28;19929;-57
2022/10/10 10:00:23;;;;;;;;;;;17.50;1.00;;;;;;5034332;28;19925;-54
2022/10/10 10:03:02;;;;;;;;;;;17.50;1.00;;;;;;5033601;28;19927;-57
2022/10/10 10:05:29;;;;;;;;;;;17.50;1.00;;;;;;5033808;28;19928;-57
2022/10/10 10:07:57;;;;;;;;;;;17.50;1.00;;;;;;5033657;28;19921;-56
2022/10/10 10:10:31;;;;;;;;;;;17.50;1.00;;;;;;5034039;28;19921;-52
2022/10/10 10:12:58;;;;;;;;;;;17.50;1.00;;;;;;5032571;28;19921;-48
2022/10/10 10:15:26;;;;;;;;;;;17.50;1.00;;;;;;5033622;28;19998;-56
2022/10/10 10:18:08;;;;;;;;;;;17.50;1.00;;;;;;5033873;28;19925;-55
2022/10/10 10:20:36;;;;;;;;;;;17.50;1.00;;;;;;5033498;28;19921;-56
2022/10/10 10:23:03;;;;;;;;;;;17.50;1.00;;;;;;5033265;28;19967;-49
2022/10/10 10:25:35;;;;;;;;;;;17.50;1.00;;;;;;5033514;28;19921;-54
2022/10/10 10:28:10;;;;;;;;;;;17.50;1.00;;;;;;5033757;28;19936;-55
2022/10/10 10:30:38;;;;;;;;;;;17.50;1.00;;;;;;5033251;28;20007;-54
2022/10/10 10:33:11;;;;;;;;;;;17.50;1.00;;;;;;5033048;28;19921;-51
2022/10/10 10:35:56;;;;;;;;;;;17.50;1.00;;;;;;5033580;28;19921;-53
2022/10/10 10:38:26;;;;;;;;;;;17.50;1.00;;;;;;5033123;28;20430;-54
2022/10/10 10:41:02;;;;;;;;;;;17.50;1.00;;;;;;5033404;28;19921;-49
2022/10/10 10:43:43;;;;;;;;;;;17.50;1.00;;;;;;5032879;28;20450;-53
2022/10/10 10:46:17;;;;;;;;;;;17.50;1.00;;;;;;5036681;28;20346;-49
2022/10/10 10:48:45;;;;;;;;;;;17.60;1.00;;;;;;5037699;28;19921;-56
2022/10/10 10:51:15;;;;;;;;;;;17.60;1.00;;;;;;5037641;28;19921;-54
2022/10/10 10:54:06;;;;;;;;;;;17.60;1.00;;;;;;5036902;28;19929;-57
2022/10/10 10:56:41;;;;;;;;;;;17.60;1.00;;;;;;5037148;28;19928;-51
2022/10/10 10:59:10;;;;;;;;;;;17.60;1.00;;;;;;5037944;28;19920;-51
2022/10/10 11:02:06;;;;;;;;;;;17.60;1.00;;;;;;5036957;28;20010;-53
2022/10/10 11:04:52;;;;;;;;;;;17.60;1.00;;;;;;5037212;28;19921;-52
2022/10/10 11:07:58;;;;;;;;;;;17.60;1.00;;;;;;5037145;28;19967;-52
2022/10/10 11:10:37;;;;;;;;;;;17.60;1.00;;;;;;5036120;28;20374;-58
2022/10/10 11:13:18;;;;;;;;;;;17.50;1.00;;;;;;5036823;28;19921;-52
2022/10/10 11:15:51;;;;;;;;;;;17.60;1.00;;;;;;5037063;28;19927;-51
2022/10/10 11:18:38;;;;;;;;;;;17.50;1.00;;;;;;5037113;28;19928;-56
2022/10/10 11:21:10;;;;;;;;;;;17.50;1.00;;;;;;5036985;28;19925;-56
2022/10/10 11:23:43;;;;;;;;;;;17.50;1.00;;;;;;5036608;28;19928;-55
2022/10/10 11:26:19;;;;;;;;;;;17.60;1.00;;;;;;5036817;28;20012;-52
2022/10/10 11:28:49;;;;;;;;;;;17.50;1.00;;;;;;5037194;28;19932;-56
2022/10/10 11:31:19;;;;;;;;;;;17.50;1.00;;;;;;5036949;28;20015;-56
2022/10/10 11:33:50;;;;;;;;;;;17.50;1.00;;;;;;5036292;28;19922;-54
2022/10/10 11:36:18;;;;;;;;;;;17.50;1.00;;;;;;5036643;28;20287;-50
2022/10/10 11:38:52;;;;;;;;;;;17.50;1.00;;;;;;5035912;28;20025;-55
2022/10/10 11:41:24;;;;;;;;;;;17.50;1.00;;;;;;5035317;28;20381;-55
2022/10/10 11:43:54;;;;;;;;;;;17.50;1.00;;;;;;5034803;28;19921;-50
2022/10/10 11:46:41;;;;;;;;;;;17.50;1.00;;;;;;5035142;28;19928;-55
2022/10/10 11:49:08;;;;;;;;;;;17.50;1.00;;;;;;5035055;28;19943;-55
2022/10/10 11:51:44;;;;;;;;;;;17.50;1.00;;;;;;5035030;28;20103;-56
2022/10/10 11:54:16;;;;;;;;;;;17.50;1.00;;;;;;5033847;28;19920;-51
2022/10/10 11:56:44;;;;;;;;;;;17.50;1.00;;;;;;5034608;28;20382;-50
2022/10/10 11:59:22;;;;;;;;;;;17.50;1.00;;;;;;5034948;28;19928;-52
2022/10/10 12:01:52;;;;;;;;;;;17.50;1.00;;;;;;5034820;28;19921;-53
2022/10/10 12:04:20;;;;;;;;;;;17.50;1.00;;;;;;5035354;28;19921;-52
2022/10/10 12:06:59;;;;;;;;;;;17.50;1.00;;;;;;5035017;28;20268;-50
2022/10/10 12:09:32;;;;;;;;;;;17.50;1.00;;;;;;5034887;28;20375;-57
2022/10/10 12:12:02;;;;;;;;;;;17.50;1.00;;;;;;5034819;28;19921;-53
2022/10/10 12:14:30;;;;;;;;;;;17.50;1.00;;;;;;5035006;28;19927;-53
2022/10/10 12:16:57;;;;;;;;;;;17.50;1.00;;;;;;5034787;28;19932;-54
2022/10/10 12:19:25;;;;;;;;;;;17.50;1.00;;;;;;5035529;28;20243;-53
2022/10/10 12:21:58;;;;;;;;;;;17.50;1.00;;;;;;5034268;28;19925;-54
2022/10/10 12:24:29;;;;;;;;;;;17.50;1.00;;;;;;5034413;28;20239;-56
2022/10/10 12:26:56;;;;;;;;;;;17.50;1.00;;;;;;5034939;28;19927;-55
2022/10/10 12:29:41;;;;;;;;;;;17.50;1.00;;;;;;5034770;28;19921;-54
2022/10/10 12:32:14;;;;;;;;;;;17.50;1.00;;;;;;5034235;28;19975;-59
2022/10/10 12:34:42;;;;;;;;;;;17.50;1.00;;;;;;5034797;28;19921;-54
2022/10/10 12:37:26;;;;;;;;;;;17.50;1.00;;;;;;4996292;28;1098471;-58
2022/10/10 12:40:05;;;;;;;;;;;17.50;1.00;;;;;;5035550;28;19927;-52
2022/10/10 12:42:32;;;;;;;;;;;17.60;1.00;;;;;;5034842;28;19921;-50
2022/10/10 12:44:59;;;;;;;;;;;17.60;1.00;;;;;;5035377;28;20028;-54
2022/10/10 12:47:26;;;;;;;;;;;17.60;1.00;;;;;;5035112;28;19991;-53
2022/10/10 12:50:21;;;;;;;;;;;17.60;1.00;;;;;;5035869;28;19967;-50
2022/10/10 12:52:51;;;;;;;;;;;17.60;1.00;;;;;;5034761;28;19928;-51
2022/10/10 12:55:23;;;;;;;;;;;17.60;1.00;;;;;;5035513;28;20012;-54
2022/10/10 12:57:52;;;;;;;;;;;17.60;1.00;;;;;;5034964;28;19928;-51
2022/10/10 13:00:39;;;;;;;;;;;17.60;1.00;;;;;;5034982;28;19927;-52
2022/10/10 13:03:12;;;;;;;;;;;17.60;1.00;;;;;;5034492;28;20286;-57
2022/10/10 13:05:39;;;;;;;;;;;17.60;1.00;;;;;;5034860;28;19928;-56
2022/10/10 13:08:10;;;;;;;;;;;17.60;1.00;;;;;;5034066;28;19921;-55
2022/10/10 13:10:37;;;;;;;;;;;17.60;1.00;;;;;;5035039;28;20314;-55
2022/10/10 13:13:13;;;;;;;;;;;17.60;1.00;;;;;;5034444;28;20369;-53
2022/10/10 13:15:49;;;;;;;;;;;17.60;1.00;;;;;;5035254;28;20004;-52
2022/10/10 13:18:31;;;;;;;;;;;17.60;1.00;;;;;;5034870;28;19940;-53
2022/10/10 13:20:58;;;;;;;;;;;17.60;1.00;;;;;;5028773;28;19976;-54
2022/10/10 13:23:25;;;;;;;;;;;17.60;1.00;;;;;;5022804;28;19944;-54
2022/10/10 13:25:52;;;;;;;;;;;17.60;1.00;;;;;;5024405;28;19928;-56
2022/10/10 13:28:19;;;;;;;;;;;17.70;1.00;;;;;;5034414;28;19928;-54
2022/10/10 13:30:47;;;;;;;;;;;17.70;1.00;;;;;;5034142;28;20364;-57
2022/10/10 13:33:15;;;;;;;;;;;17.60;1.00;;;;;;5033778;28;19924;-54
2022/10/10 13:35:43;;;;;;;;;;;17.60;1.00;;;;;;5034480;28;20386;-54
2022/10/10 13:38:10;;;;;;;;;;;17.70;1.00;;;;;;5033924;28;19975;-56
2022/10/10 13:40:39;;;;;;;;;;;17.60;1.00;;;;;;5034810;28;20320;-51
2022/10/10 13:43:10;;;;;;;;;;;17.60;1.00;;;;;;5033850;28;19921;-55
2022/10/10 13:45:42;;;;;;;;;;;17.60;1.00;;;;;;5034064;28;19921;-58
2022/10/10 13:48:20;;;;;;;;;;;17.60;1.00;;;;;;5034246;28;19920;-53
2022/10/10 13:50:47;;;;;;;;;;;17.60;1.00;;;;;;5034134;28;19921;-55
2022/10/10 13:53:23;;;;;;;;;;;17.60;1.00;;;;;;5033643;28;19927;-51
2022/10/10 13:56:00;;;;;;;;;;;17.70;1.00;;;;;;5034101;28;19921;-57
2022/10/10 13:58:29;;;;;;;;;;;17.70;1.00;;;;;;5026411;28;19921;-52
2022/10/10 14:00:57;;;;;;;;;;;17.70;1.00;;;;;;5014161;28;19975;-52
2022/10/10 14:03:25;;;;;;;;;;;17.80;1.00;;;;;;5027171;28;20279;-54
2022/10/10 14:05:52;;;;;;;;;;;17.80;1.00;;;;;;5033857;28;19921;-48
2022/10/10 14:08:19;;;;;;;;;;;17.80;1.00;;;;;;5033767;28;19925;-57
2022/10/10 14:11:00;;;;;;;;;;;17.80;1.00;;;;;;5033436;28;19921;-59
2022/10/10 14:13:29;;;;;;;;;;;17.70;1.00;;;;;;5033553;28;19921;-56
2022/10/10 14:16:14;;;;;;;;;;;17.70;1.00;;;;;;5030071;28;19986;-51
2022/10/10 14:18:41;;;;;;;;;;;17.70;1.00;;;;;;5033706;28;19983;-51
2022/10/10 14:21:08;;;;;;;;;;;17.80;1.00;;;;;;5033537;28;19957;-53
2022/10/10 14:23:35;;;;;;;;;;;17.80;1.00;;;;;;5033679;28;19921;-54
2022/10/10 14:26:03;;;;;;;;;;;17.80;1.00;;;;;;5033706;28;19952;-53
2022/10/10 14:28:31;;;;;;;;;;;17.80;1.00;;;;;;5032054;28;20367;-56
2022/10/10 14:30:58;;;;;;;;;;;17.80;1.00;;;;;;5033485;28;19927;-53
2022/10/10 14:33:26;;;;;;;;;;;17.90;1.00;;;;;;5033638;28;19921;-53
2022/10/10 14:35:53;;;;;;;;;;;17.90;1.00;;;;;;5033593;28;19980;-56
2022/10/10 14:38:20;;;;;;;;;;;17.90;1.00;;;;;;5033305;28;19943;-56
2022/10/10 14:40:48;;;;;;;;;;;18.00;1.00;;;;;;5033646;28;20298;-53
2022/10/10 14:43:15;;;;;;;;;;;18.00;1.00;;;;;;5032913;28;19925;-53
2022/10/10 14:45:42;;;;;;;;;;;18.00;1.00;;;;;;5033351;28;19925;-55